createdAt,value
2019-03-15T00:00:28.575Z,95.10
2019-03-15T00:02:57.010Z,94.90
2019-03-15T00:05:25.465Z,94.70
2019-03-15T00:07:53.980Z,94.50
2019-03-15T00:10:22.451Z,94.10
2019-03-15T00:12:50.912Z,93.90
2019-03-15T00:15:19.367Z,93.90
2019-03-15T00:18:07.167Z,93.70
2019-03-15T00:20:35.603Z,93.70
2019-03-15T00:23:04.080Z,94.30
2019-03-15T00:25:32.583Z,94.30
2019-03-15T00:28:01.167Z,94.40
2019-03-15T00:30:30.337Z,94.50
2019-03-15T00:32:58.922Z,94.60
2019-03-15T00:35:27.368Z,94.40
2019-03-15T00:37:56.588Z,94.30
2019-03-15T00:40:25.119Z,94.10
2019-03-15T00:42:53.632Z,93.60
2019-03-15T00:45:22.163Z,93.50
2019-03-15T00:47:50.730Z,93.60
2019-03-15T00:50:19.286Z,93.00
2019-03-15T00:53:07.089Z,92.80
2019-03-15T00:55:35.618Z,92.80
2019-03-15T00:58:04.123Z,93.10
2019-03-15T01:00:32.567Z,93.30
2019-03-15T01:03:01.156Z,93.10
2019-03-15T01:05:29.647Z,92.30
2019-03-15T01:07:58.086Z,91.90
2019-03-15T01:10:26.550Z,91.30
2019-03-15T01:12:54.994Z,91.20
2019-03-15T01:15:23.464Z,91.20
2019-03-15T01:18:11.247Z,90.90
2019-03-15T01:20:39.709Z,90.50
2019-03-15T01:23:08.251Z,90.50
2019-03-15T01:25:36.882Z,90.90
2019-03-15T01:28:24.668Z,91.10
2019-03-15T01:31:13.858Z,91.20
2019-03-15T01:33:42.823Z,91.40
2019-03-15T01:36:11.274Z,91.40
2019-03-15T01:38:39.716Z,91.00
2019-03-15T01:41:08.180Z,91.30
2019-03-15T01:43:36.621Z,91.60
2019-03-15T01:46:05.075Z,91.40
2019-03-15T01:48:33.590Z,91.30
2019-03-15T01:51:02.052Z,91.30
2019-03-15T01:53:30.487Z,91.70
2019-03-15T01:55:58.941Z,91.60
2019-03-15T01:58:27.382Z,91.40
2019-03-15T02:00:55.849Z,91.40
2019-03-15T02:03:24.311Z,91.00
2019-03-15T02:05:52.852Z,90.40
2019-03-15T02:08:21.371Z,89.80
2019-03-15T02:10:49.811Z,89.50
2019-03-15T02:13:18.280Z,89.30
2019-03-15T02:15:46.722Z,89.80
2019-03-15T02:18:15.165Z,89.60
2019-03-15T02:20:43.636Z,89.40
2019-03-15T02:23:12.078Z,88.90
2019-03-15T02:25:40.523Z,88.60
2019-03-15T02:28:08.990Z,88.50
2019-03-15T02:30:37.426Z,89.00
2019-03-15T02:33:25.236Z,88.80
2019-03-15T02:35:53.680Z,89.30
2019-03-15T02:38:22.179Z,87.90
2019-03-15T02:40:50.645Z,86.50
2019-03-15T02:43:20.942Z,87.00
2019-03-15T02:45:49.807Z,84.70
2019-03-15T02:48:18.727Z,82.30
2019-03-15T02:50:47.496Z,81.70
2019-03-15T02:53:16.000Z,80.20
2019-03-15T02:55:44.465Z,79.00
2019-03-15T02:58:12.899Z,77.40
2019-03-15T03:00:41.348Z,75.50
2019-03-15T03:03:09.802Z,75.40
2019-03-15T03:05:38.246Z,75.40
2019-03-15T03:08:06.765Z,77.00
2019-03-15T03:10:35.227Z,77.40
2019-03-15T03:13:03.741Z,80.80
2019-03-15T03:15:32.261Z,81.80
2019-03-15T03:18:00.799Z,82.80
2019-03-15T03:20:29.240Z,82.90
2019-03-15T03:22:57.679Z,82.60
2019-03-15T03:25:26.151Z,82.20
2019-03-15T03:27:54.593Z,78.10
2019-03-15T03:30:23.041Z,79.40
2019-03-15T03:32:51.639Z,76.60
2019-03-15T03:35:20.079Z,75.00
2019-03-15T03:37:48.535Z,73.30
2019-03-15T03:40:20.304Z,72.30
2019-03-15T03:42:47.296Z,73.70
2019-03-15T03:45:15.730Z,71.90
2019-03-15T03:47:44.217Z,70.30
2019-03-15T03:50:12.965Z,71.40
2019-03-15T03:52:42.006Z,73.00
2019-03-15T03:55:10.675Z,70.80
2019-03-15T03:57:39.123Z,69.90
2019-03-15T04:00:10.763Z,68.10
2019-03-15T04:02:39.295Z,67.70
2019-03-15T04:05:07.866Z,65.10
2019-03-15T04:07:36.546Z,68.50
2019-03-15T04:10:08.151Z,70.50
2019-03-15T04:12:36.597Z,74.60
2019-03-15T04:15:11.667Z,75.20
2019-03-15T04:17:40.130Z,76.30
2019-03-15T04:20:10.514Z,77.20
2019-03-15T04:22:39.055Z,77.10
2019-03-15T04:25:11.082Z,77.70
2019-03-15T04:27:39.523Z,76.60
2019-03-15T04:30:13.254Z,76.90
2019-03-15T04:32:41.702Z,77.10
2019-03-15T04:35:11.299Z,78.90
2019-03-15T04:37:41.159Z,80.20
2019-03-15T04:40:11.597Z,80.80
2019-03-15T04:42:40.079Z,82.50
2019-03-15T04:45:08.963Z,81.10
2019-03-15T04:47:37.435Z,82.50
2019-03-15T04:50:07.213Z,81.40
2019-03-15T04:52:35.745Z,79.80
2019-03-15T04:55:05.295Z,79.50
2019-03-15T04:57:33.751Z,79.30
2019-03-15T05:00:02.272Z,80.00
2019-03-15T05:02:30.880Z,80.10
2019-03-15T05:05:00.444Z,79.80
2019-03-15T05:07:29.250Z,75.10
2019-03-15T05:09:57.691Z,76.80
2019-03-15T05:12:26.155Z,79.60
2019-03-15T05:14:54.595Z,80.80
2019-03-15T05:17:23.041Z,80.00
2019-03-15T05:19:51.508Z,80.70
2019-03-15T05:22:20.013Z,80.50
2019-03-15T05:24:48.482Z,80.90
2019-03-15T05:27:16.930Z,81.70
2019-03-15T05:29:45.366Z,79.30
2019-03-15T05:32:13.835Z,80.20
2019-03-15T05:34:42.283Z,80.70
2019-03-15T05:37:10.743Z,80.70
2019-03-15T05:39:40.232Z,77.30
2019-03-15T05:42:08.702Z,80.20
2019-03-15T05:44:56.502Z,74.10
2019-03-15T05:47:24.958Z,75.70
2019-03-15T05:49:53.495Z,77.40
2019-03-15T05:52:22.110Z,76.00
2019-03-15T05:54:50.559Z,74.40
2019-03-15T05:57:19.019Z,69.60
2019-03-15T06:00:27.538Z,70.20
2019-03-15T06:02:55.984Z,70.80
2019-03-15T06:05:24.499Z,72.50
2019-03-15T06:07:52.960Z,79.10
2019-03-15T06:10:21.402Z,78.00
2019-03-15T06:13:09.199Z,82.50
2019-03-15T06:15:56.975Z,84.50
2019-03-15T06:18:25.442Z,86.90
2019-03-15T06:20:53.883Z,90.80
2019-03-15T06:23:22.401Z,91.00
2019-03-15T06:25:50.863Z,91.30
2019-03-15T06:28:19.315Z,92.40
2019-03-15T06:31:07.187Z,93.10
2019-03-15T06:33:35.624Z,93.40
2019-03-15T06:36:04.059Z,93.80
2019-03-15T06:38:33.635Z,94.40
2019-03-15T06:41:02.357Z,94.70
2019-03-15T06:43:30.830Z,94.80
2019-03-15T06:46:18.622Z,95.20
2019-03-15T06:48:47.110Z,95.40
2019-03-15T06:51:15.555Z,96.00
2019-03-15T06:53:43.998Z,96.40
2019-03-15T06:56:12.455Z,96.50
2019-03-15T06:58:40.895Z,96.90
2019-03-15T07:01:09.361Z,97.20
2019-03-15T07:03:37.799Z,97.20
2019-03-15T07:06:06.259Z,97.20
2019-03-15T07:08:34.700Z,97.30
2019-03-15T07:11:22.514Z,97.60
2019-03-15T07:13:50.956Z,97.80
2019-03-15T07:16:38.760Z,97.90
2019-03-15T07:19:07.203Z,97.90
2019-03-15T07:21:36.970Z,97.90
2019-03-15T07:24:05.523Z,98.00
2019-03-15T07:26:33.994Z,98.20
2019-03-15T07:29:02.578Z,98.50
2019-03-15T07:31:31.091Z,98.30
2019-03-15T07:33:59.560Z,98.60
2019-03-15T07:36:28.002Z,98.60
2019-03-15T07:38:56.532Z,98.30
2019-03-15T07:41:25.511Z,98.00
2019-03-15T07:43:54.074Z,97.90
2019-03-15T07:46:22.607Z,97.50
2019-03-15T07:48:51.042Z,97.50
2019-03-15T07:51:19.489Z,97.50
2019-03-15T07:53:47.937Z,97.50
2019-03-15T07:56:16.370Z,97.40
2019-03-15T07:58:44.836Z,96.80
2019-03-15T08:01:13.271Z,93.60
2019-03-15T08:03:41.716Z,95.60
2019-03-15T08:06:10.174Z,95.90
2019-03-15T08:08:38.771Z,96.10
2019-03-15T08:11:07.600Z,95.60
2019-03-15T08:13:36.033Z,96.40
2019-03-15T08:16:04.553Z,95.30
2019-03-15T08:18:33.081Z,94.90
2019-03-15T08:21:01.514Z,94.50
2019-03-15T08:23:29.975Z,95.20
2019-03-15T08:25:58.422Z,95.10
2019-03-15T08:28:26.888Z,95.70
2019-03-15T08:30:55.396Z,96.40
2019-03-15T08:33:23.875Z,97.20
2019-03-15T08:35:52.383Z,95.50
2019-03-15T08:38:20.814Z,96.20
2019-03-15T08:40:49.279Z,96.10
2019-03-15T08:43:37.057Z,94.60
2019-03-15T08:46:24.857Z,96.00
2019-03-15T08:48:53.323Z,96.30
2019-03-15T08:51:21.846Z,95.50
2019-03-15T08:53:50.302Z,95.60
2019-03-15T08:56:18.764Z,96.60
2019-03-15T08:58:47.203Z,95.50
2019-03-15T09:01:15.671Z,96.10
2019-03-15T09:03:44.119Z,95.20
2019-03-15T09:06:12.562Z,96.20
2019-03-15T09:08:41.025Z,94.90
2019-03-15T09:11:09.473Z,96.20
2019-03-15T09:13:37.930Z,96.60
2019-03-15T09:16:06.376Z,95.40
2019-03-15T09:18:34.824Z,95.60
2019-03-15T09:21:03.371Z,95.50
2019-03-15T09:23:31.887Z,97.70
2019-03-15T09:26:19.767Z,95.50
2019-03-15T09:28:48.207Z,97.10
2019-03-15T09:31:16.655Z,96.40
2019-03-15T09:33:45.113Z,96.50
2019-03-15T09:36:13.644Z,96.10
2019-03-15T09:38:42.175Z,96.90
2019-03-15T09:41:10.622Z,96.40
2019-03-15T09:43:39.087Z,97.40
2019-03-15T09:46:07.528Z,96.50
2019-03-15T09:48:36.052Z,96.30
2019-03-15T09:51:04.667Z,97.20
2019-03-15T09:53:52.520Z,98.20
2019-03-15T09:56:21.114Z,99.00
2019-03-15T09:58:49.600Z,99.10
2019-03-15T10:01:34.335Z,98.50
2019-03-15T10:03:48.217Z,99.00
2019-03-15T10:06:19.383Z,98.40
2019-03-15T10:08:46.865Z,98.40
2019-03-15T10:11:15.375Z,98.30
2019-03-15T10:13:43.831Z,98.80
2019-03-15T10:16:12.280Z,99.20
2019-03-15T10:18:40.790Z,98.50
2019-03-15T10:21:09.622Z,99.10
2019-03-15T10:23:38.434Z,99.90
2019-03-15T10:26:06.905Z,99.50
2019-03-15T10:28:35.341Z,99.70
2019-03-15T10:31:03.776Z,99.70
2019-03-15T10:33:32.242Z,99.50
2019-03-15T10:36:00.679Z,99.70
2019-03-15T10:38:29.138Z,99.30
2019-03-15T10:40:57.577Z,99.40
2019-03-15T10:43:26.076Z,99.90
2019-03-15T10:45:54.522Z,99.90
2019-03-15T10:48:25.562Z,99.90
2019-03-15T10:50:53.216Z,99.90
2019-03-15T10:53:21.646Z,99.90
2019-03-15T10:55:59.405Z,99.90
2019-03-15T10:58:20.263Z,99.90
2019-03-15T11:00:48.705Z,99.90
2019-03-15T11:03:17.156Z,99.90
2019-03-15T11:05:45.590Z,99.90
2019-03-15T11:08:14.063Z,99.90
2019-03-15T11:10:42.498Z,99.90
2019-03-15T11:13:10.935Z,99.90
2019-03-15T11:15:39.396Z,99.90
2019-03-15T11:18:07.827Z,99.90
2019-03-15T11:20:36.284Z,99.90
2019-03-15T11:23:04.729Z,99.90
2019-03-15T11:25:33.163Z,99.90
2019-03-15T11:28:01.688Z,99.90
2019-03-15T11:30:30.195Z,99.90
2019-03-15T11:33:18.000Z,99.90
2019-03-15T11:35:46.517Z,99.90
2019-03-15T11:38:15.071Z,99.90
2019-03-15T11:40:43.530Z,99.90
2019-03-15T11:43:11.967Z,99.90
2019-03-15T11:45:59.769Z,99.90
2019-03-15T11:48:28.203Z,99.90
2019-03-15T11:50:56.634Z,99.90
2019-03-15T11:53:25.099Z,99.90
2019-03-15T11:55:53.530Z,99.90
2019-03-15T11:58:21.990Z,99.90
2019-03-15T12:00:50.425Z,99.90
2019-03-15T12:03:18.955Z,99.90
2019-03-15T12:05:47.477Z,99.90
2019-03-15T12:08:15.955Z,99.90
2019-03-15T12:10:44.407Z,99.90
2019-03-15T12:13:12.846Z,99.90
2019-03-15T12:15:41.316Z,99.90
2019-03-15T12:18:09.926Z,99.90
2019-03-15T12:20:38.460Z,99.90
2019-03-15T12:23:06.991Z,99.90
2019-03-15T12:25:35.425Z,99.90
2019-03-15T12:28:04.035Z,99.90
2019-03-15T12:30:51.882Z,99.90
2019-03-15T12:33:26.539Z,99.90
2019-03-15T12:35:54.979Z,99.90
2019-03-15T12:38:23.478Z,99.90
2019-03-15T12:40:52.066Z,99.90
2019-03-15T12:43:39.845Z,99.90
2019-03-15T12:46:08.317Z,99.90
2019-03-15T12:48:36.852Z,99.90
2019-03-15T12:51:05.375Z,99.90
2019-03-15T12:53:33.834Z,99.90
2019-03-15T12:56:02.287Z,99.80
2019-03-15T12:58:30.749Z,99.90
2019-03-15T13:00:59.195Z,99.60
2019-03-15T13:03:27.649Z,99.60
2019-03-15T13:05:56.191Z,99.70
2019-03-15T13:08:24.699Z,99.20
2019-03-15T13:10:53.156Z,99.70
2019-03-15T13:13:21.598Z,99.50
2019-03-15T13:15:50.073Z,99.60
2019-03-15T13:18:18.591Z,99.50
2019-03-15T13:20:47.031Z,99.60
2019-03-15T13:23:15.482Z,99.50
2019-03-15T13:25:43.928Z,99.70
2019-03-15T13:28:12.384Z,99.60
2019-03-15T13:30:40.899Z,99.40
2019-03-15T13:33:19.578Z,99.30
2019-03-15T13:35:39.617Z,99.70
2019-03-15T13:38:08.081Z,99.80
2019-03-15T13:40:36.557Z,99.20
2019-03-15T13:43:04.987Z,99.00
2019-03-15T13:45:33.423Z,97.80
2019-03-15T13:48:01.967Z,96.90
2019-03-15T13:50:30.554Z,96.70
2019-03-15T13:52:59.095Z,95.40
2019-03-15T13:55:27.548Z,95.00
2019-03-15T13:57:56.092Z,95.30
2019-03-15T14:00:24.671Z,95.00
2019-03-15T14:02:53.107Z,93.60
2019-03-15T14:05:21.568Z,93.70
2019-03-15T14:07:50.076Z,92.10
2019-03-15T14:10:18.671Z,91.50
2019-03-15T14:12:47.208Z,90.50
2019-03-15T14:15:17.980Z,91.60
2019-03-15T14:17:46.493Z,89.80
2019-03-15T14:20:14.940Z,90.70
2019-03-15T14:22:43.406Z,85.70
2019-03-15T14:25:23.221Z,84.00
2019-03-15T14:27:51.782Z,81.10
2019-03-15T14:30:20.290Z,79.70
2019-03-15T14:32:48.733Z,79.80
2019-03-15T14:38:30.546Z,78.30
2019-03-15T14:40:59.115Z,80.20
2019-03-15T14:43:27.798Z,78.90
2019-03-15T14:45:56.627Z,80.50
2019-03-15T14:48:25.238Z,79.70
2019-03-15T14:50:53.702Z,78.00
2019-03-15T14:53:22.262Z,75.20
2019-03-15T14:55:50.771Z,75.60
2019-03-15T14:58:19.224Z,68.60
2019-03-15T15:00:47.667Z,66.40
2019-03-15T15:03:16.222Z,66.70
2019-03-15T15:05:47.221Z,64.50
2019-03-15T15:08:14.974Z,63.50
2019-03-15T15:10:43.584Z,60.10
2019-03-15T15:13:12.129Z,66.50
2019-03-15T15:15:40.748Z,68.70
2019-03-15T15:18:09.187Z,58.60
2019-03-15T15:20:56.995Z,60.10
2019-03-15T15:23:25.434Z,60.10
2019-03-15T15:25:54.002Z,51.50
2019-03-15T15:28:22.443Z,48.70
2019-03-15T15:30:50.886Z,50.70
2019-03-15T15:33:19.497Z,47.20
2019-03-15T15:35:48.080Z,51.60
2019-03-15T15:38:16.543Z,43.60
2019-03-15T15:40:44.979Z,33.00
2019-03-15T15:43:13.428Z,32.70
2019-03-15T15:45:41.961Z,37.10
2019-03-15T15:48:10.487Z,36.00
2019-03-15T15:50:38.951Z,32.70
2019-03-15T15:53:07.399Z,28.80
2019-03-15T15:55:35.901Z,33.90
2019-03-15T15:58:16.898Z,30.10
2019-03-15T16:00:34.561Z,30.20
2019-03-15T16:03:03.107Z,29.70
2019-03-15T16:05:31.689Z,20.60
2019-03-15T16:08:00.131Z,26.70
2019-03-15T16:10:28.656Z,19.80
2019-03-15T16:12:57.168Z,26.80
2019-03-15T16:15:25.693Z,18.20
2019-03-15T16:17:54.333Z,23.00
2019-03-15T16:20:22.845Z,17.30
2019-03-15T16:22:51.279Z,19.70
2019-03-15T16:25:19.718Z,9.60
2019-03-15T16:27:48.171Z,18.00
2019-03-15T16:30:22.548Z,17.60
2019-03-15T16:32:51.147Z,25.40
2019-03-15T16:35:19.583Z,18.80
2019-03-15T16:37:48.110Z,23.30
2019-03-15T16:40:16.818Z,17.50
2019-03-15T16:42:45.402Z,11.60
2019-03-15T16:45:22.480Z,11.80
2019-03-15T16:47:50.915Z,16.10
2019-03-15T16:50:19.378Z,11.70
2019-03-15T16:52:47.814Z,14.00
2019-03-15T16:55:16.323Z,7.20
2019-03-15T16:58:04.119Z,13.60
2019-03-15T17:00:32.638Z,16.60
2019-03-15T17:03:01.238Z,21.20
2019-03-15T17:05:29.775Z,21.20
2019-03-15T17:07:58.393Z,16.70
2019-03-15T17:10:26.995Z,13.10
2019-03-15T17:12:55.925Z,19.60
2019-03-15T17:15:26.113Z,19.80
2019-03-15T17:17:54.550Z,16.70
2019-03-15T17:20:23.155Z,19.20
2019-03-15T17:22:51.588Z,14.40
2019-03-15T17:25:20.025Z,15.20
2019-03-15T17:27:48.483Z,11.40
2019-03-15T17:30:17.558Z,12.00
2019-03-15T17:32:46.016Z,9.70
2019-03-15T17:35:16.564Z,12.30
2019-03-15T17:37:45.275Z,19.40
2019-03-15T17:40:16.211Z,21.50
2019-03-15T17:42:44.652Z,18.30
2019-03-15T17:45:13.661Z,25.00
2019-03-15T17:47:42.317Z,22.40
2019-03-15T17:50:17.821Z,15.40
2019-03-15T17:52:46.274Z,17.70
2019-03-15T17:55:16.136Z,12.20
2019-03-15T17:57:45.849Z,14.40
2019-03-15T18:00:39.916Z,8.90
2019-03-15T18:03:20.198Z,11.70
2019-03-15T18:05:39.028Z,13.20
2019-03-15T18:08:07.639Z,21.10
2019-03-15T18:10:36.140Z,29.90
2019-03-15T18:13:04.858Z,44.20
2019-03-15T18:15:33.288Z,61.90
2019-03-15T18:18:01.790Z,60.90
2019-03-15T18:20:30.326Z,61.00
2019-03-15T18:22:58.838Z,53.60
2019-03-15T18:25:27.380Z,60.20
2019-03-15T18:27:56.030Z,65.40
2019-03-15T18:30:24.578Z,59.40
2019-03-15T18:32:53.186Z,62.80
2019-03-15T18:35:32.959Z,57.60
2019-03-15T18:38:11.306Z,55.80
2019-03-15T18:40:39.816Z,50.70
2019-03-15T18:43:08.671Z,48.30
2019-03-15T18:45:37.260Z,48.40
2019-03-15T18:48:05.859Z,40.30
2019-03-15T18:50:34.438Z,40.50
2019-03-15T18:53:02.977Z,37.20
2019-03-15T18:55:31.491Z,35.30
2019-03-15T18:58:19.408Z,27.90
2019-03-15T19:00:47.913Z,30.60
2019-03-15T19:03:16.379Z,17.90
2019-03-15T19:05:44.821Z,18.90
2019-03-15T19:08:13.327Z,18.60
2019-03-15T19:10:41.956Z,17.50
2019-03-15T19:13:10.527Z,18.50
2019-03-15T19:15:38.987Z,22.70
2019-03-15T19:18:07.437Z,18.40
2019-03-15T19:20:36.087Z,15.80
2019-03-15T19:23:05.143Z,14.60
2019-03-15T19:25:33.728Z,14.80
2019-03-15T19:28:02.487Z,6.40
2019-03-15T19:30:31.034Z,10.70
2019-03-15T19:32:59.562Z,8.40
2019-03-15T19:35:28.099Z,14.40
2019-03-15T19:37:56.612Z,12.60
2019-03-15T19:40:25.065Z,11.80
2019-03-15T19:42:53.577Z,6.40
2019-03-15T19:45:22.098Z,1.40
2019-03-15T19:48:09.896Z,6.10
2019-03-15T19:50:38.338Z,1.00
2019-03-15T19:53:06.802Z,1.00
2019-03-15T19:55:35.308Z,1.00
2019-03-15T19:58:03.823Z,1.60
2019-03-15T20:00:32.495Z,1.00
2019-03-15T20:03:20.279Z,1.00
2019-03-15T20:05:48.819Z,1.00
2019-03-15T20:08:17.343Z,1.00
2019-03-15T20:10:45.872Z,1.30
2019-03-15T20:13:14.460Z,2.40
2019-03-15T20:15:42.914Z,7.80
2019-03-15T20:18:11.369Z,16.10
2019-03-15T20:20:39.901Z,11.80
2019-03-15T20:23:08.430Z,17.50
2019-03-15T20:25:36.885Z,17.60
2019-03-15T20:28:05.451Z,20.90
2019-03-15T20:30:34.052Z,12.90
2019-03-15T20:33:02.492Z,9.60
2019-03-15T20:35:31.192Z,10.10
2019-03-15T20:37:59.627Z,6.60
2019-03-15T20:40:28.083Z,7.90
2019-03-15T20:42:56.523Z,10.50
2019-03-15T20:45:29.414Z,17.90
2019-03-15T20:48:17.155Z,22.80
2019-03-15T20:50:46.979Z,25.00
2019-03-15T20:53:15.960Z,30.60
2019-03-15T20:55:44.502Z,32.70
2019-03-15T20:58:13.119Z,33.90
2019-03-15T21:00:41.764Z,32.80
2019-03-15T21:03:10.215Z,32.70
2019-03-15T21:05:38.679Z,29.50
2019-03-15T21:08:07.119Z,25.10
2019-03-15T21:10:35.581Z,29.30
2019-03-15T21:13:04.026Z,30.80
2019-03-15T21:15:32.531Z,31.00
2019-03-15T21:18:01.001Z,34.30
2019-03-15T21:20:29.482Z,37.60
2019-03-15T21:22:57.978Z,34.90
2019-03-15T21:25:26.501Z,35.70
2019-03-15T21:27:54.994Z,33.70
2019-03-15T21:30:24.673Z,29.30
2019-03-15T21:32:53.199Z,30.60
2019-03-15T21:35:21.738Z,28.70
2019-03-15T21:37:50.342Z,31.10
2019-03-15T21:40:20.837Z,33.20
2019-03-15T21:42:49.394Z,36.20
2019-03-15T21:45:18.003Z,33.90
2019-03-15T21:47:46.446Z,33.10
2019-03-15T21:50:20.632Z,32.90
2019-03-15T21:52:49.095Z,34.80
2019-03-15T21:55:17.536Z,35.90
2019-03-15T21:57:45.983Z,33.90
2019-03-15T22:00:15.569Z,35.80
2019-03-15T22:02:44.112Z,35.00
2019-03-15T22:05:12.690Z,31.90
2019-03-15T22:07:41.128Z,33.50
2019-03-15T22:10:12.291Z,33.00
2019-03-15T22:12:41.019Z,31.40
2019-03-15T22:15:11.478Z,32.20
2019-03-15T22:17:40.394Z,32.10
2019-03-15T22:20:16.755Z,25.30
2019-03-15T22:22:45.335Z,26.00
2019-03-15T22:25:14.113Z,24.70
2019-03-15T22:27:42.613Z,22.20
2019-03-15T22:30:15.603Z,25.50
2019-03-15T22:32:44.130Z,30.10
2019-03-15T22:35:12.789Z,28.60
2019-03-15T22:37:41.315Z,24.70
2019-03-15T22:40:13.485Z,24.30
2019-03-15T22:42:42.074Z,24.40
2019-03-15T22:45:11.648Z,26.40
2019-03-15T22:47:40.151Z,21.60
2019-03-15T22:50:12.872Z,23.60
2019-03-15T22:52:41.308Z,22.40
2019-03-15T22:55:10.808Z,24.70
2019-03-15T22:57:39.387Z,29.20
2019-03-15T23:00:20.347Z,29.80
2019-03-15T23:03:08.249Z,29.00
2019-03-15T23:05:36.855Z,18.70
2019-03-15T23:08:05.440Z,26.30
2019-03-15T23:10:33.948Z,25.50
2019-03-15T23:13:21.819Z,24.60
2019-03-15T23:16:09.521Z,23.30
2019-03-15T23:18:37.978Z,23.20
2019-03-15T23:21:06.418Z,24.60
2019-03-15T23:23:54.239Z,23.30
2019-03-15T23:26:22.759Z,20.60
2019-03-15T23:28:51.205Z,15.50
2019-03-15T23:31:19.693Z,17.00
2019-03-15T23:33:48.135Z,16.20
2019-03-15T23:36:16.674Z,16.20
2019-03-15T23:38:45.114Z,12.50
2019-03-15T23:41:13.608Z,10.40
2019-03-15T23:44:01.510Z,6.70
2019-03-15T23:46:29.953Z,1.00
2019-03-15T23:49:10.421Z,8.00
2019-03-15T23:51:38.871Z,5.30
2019-03-15T23:54:07.475Z,8.00
2019-03-15T23:56:35.911Z,5.80
2019-03-15T23:59:04.418Z,14.20
